createdAt,value
2018-09-19T00:02:06.503Z,18.83
2018-09-19T00:04:34.806Z,18.82
2018-09-19T00:07:03.126Z,18.80
2018-09-19T00:09:31.428Z,18.68
2018-09-19T00:11:59.735Z,18.77
2018-09-19T00:14:28.046Z,18.71
2018-09-19T00:16:56.361Z,18.66
2018-09-19T00:19:24.667Z,18.73
2018-09-19T00:21:53.035Z,18.59
2018-09-19T00:24:21.286Z,18.55
2018-09-19T00:26:49.590Z,18.56
2018-09-19T00:29:17.920Z,18.55
2018-09-19T00:31:46.227Z,18.45
2018-09-19T00:34:14.559Z,18.49
2018-09-19T00:36:43.790Z,18.50
2018-09-19T00:39:12.095Z,18.44
2018-09-19T00:41:40.398Z,18.44
2018-09-19T00:44:08.767Z,18.41
2018-09-19T00:46:37.066Z,18.43
2018-09-19T00:49:05.377Z,18.38
2018-09-19T00:51:33.687Z,18.43
2018-09-19T00:54:01.995Z,18.48
2018-09-19T00:56:30.303Z,18.46
2018-09-19T00:58:58.620Z,18.46
2018-09-19T01:01:26.922Z,18.34
2018-09-19T01:03:55.230Z,18.28
2018-09-19T01:06:23.547Z,18.18
2018-09-19T01:08:52.768Z,18.27
2018-09-19T01:11:21.083Z,18.32
2018-09-19T01:13:49.405Z,18.24
2018-09-19T01:16:17.721Z,18.23
2018-09-19T01:18:46.026Z,18.20
2018-09-19T01:21:14.350Z,18.27
2018-09-19T01:23:42.650Z,18.32
2018-09-19T01:26:15.656Z,18.20
2018-09-19T01:28:43.965Z,18.24
2018-09-19T01:31:12.274Z,18.24
2018-09-19T01:33:40.603Z,18.17
2018-09-19T01:36:08.906Z,18.18
2018-09-19T01:38:37.214Z,18.16
2018-09-19T01:41:05.542Z,18.10
2018-09-19T01:43:33.837Z,18.17
2018-09-19T01:46:02.348Z,18.12
2018-09-19T01:48:30.670Z,18.16
2018-09-19T01:50:58.973Z,18.14
2018-09-19T01:53:27.279Z,18.25
2018-09-19T01:55:55.601Z,18.27
2018-09-19T01:58:23.941Z,18.36
2018-09-19T02:00:52.235Z,18.32
2018-09-19T02:03:20.558Z,18.31
2018-09-19T02:05:48.872Z,18.17
2018-09-19T02:08:17.175Z,18.23
2018-09-19T02:10:45.486Z,18.18
2018-09-19T02:13:13.806Z,18.10
2018-09-19T02:15:42.138Z,18.05
2018-09-19T02:18:10.459Z,17.97
2018-09-19T02:20:38.807Z,18.00
2018-09-19T02:23:07.156Z,17.93
2018-09-19T02:25:35.500Z,17.89
2018-09-19T02:28:03.792Z,18.00
2018-09-19T02:30:32.112Z,17.89
2018-09-19T02:33:00.434Z,17.80
2018-09-19T02:35:28.760Z,17.84
2018-09-19T02:37:57.059Z,17.85
2018-09-19T02:40:25.378Z,17.81
2018-09-19T02:42:53.688Z,17.86
2018-09-19T02:45:21.997Z,17.85
2018-09-19T02:47:50.324Z,17.80
2018-09-19T02:50:18.637Z,17.73
2018-09-19T02:52:46.939Z,17.67
2018-09-19T02:55:15.264Z,17.61
2018-09-19T02:57:43.570Z,17.54
2018-09-19T03:00:11.874Z,17.58
2018-09-19T03:02:40.198Z,17.50
2018-09-19T03:05:08.506Z,17.44
2018-09-19T03:07:36.824Z,17.33
2018-09-19T03:10:05.144Z,17.27
2018-09-19T03:12:33.460Z,17.19
2018-09-19T03:15:01.763Z,17.17
2018-09-19T03:17:30.224Z,17.13
2018-09-19T03:19:58.508Z,17.07
2018-09-19T03:22:26.763Z,17.06
2018-09-19T03:24:55.096Z,17.08
2018-09-19T03:27:23.403Z,17.00
2018-09-19T03:29:51.746Z,16.96
2018-09-19T03:32:20.044Z,17.01
2018-09-19T03:34:48.350Z,17.12
2018-09-19T03:37:16.658Z,17.11
2018-09-19T03:39:45.031Z,17.11
2018-09-19T03:42:13.290Z,17.08
2018-09-19T03:44:41.600Z,17.04
2018-09-19T03:47:09.922Z,16.97
2018-09-19T03:49:38.234Z,17.03
2018-09-19T03:52:07.478Z,17.05
2018-09-19T03:54:35.795Z,17.01
2018-09-19T03:57:04.107Z,16.98
2018-09-19T03:59:32.415Z,16.93
2018-09-19T04:02:00.742Z,16.73
2018-09-19T04:04:29.058Z,16.65
2018-09-19T04:06:57.374Z,16.53
2018-09-19T04:09:25.707Z,16.54
2018-09-19T04:11:54.010Z,16.61
2018-09-19T04:14:22.329Z,16.67
2018-09-19T04:16:50.655Z,16.62
2018-09-19T04:19:18.958Z,16.55
2018-09-19T04:21:47.278Z,16.50
2018-09-19T04:24:15.596Z,16.43
2018-09-19T04:26:43.914Z,16.54
2018-09-19T04:29:12.227Z,16.52
2018-09-19T04:31:40.554Z,16.51
2018-09-19T04:34:08.884Z,16.49
2018-09-19T04:36:37.181Z,16.44
2018-09-19T04:39:05.503Z,16.41
2018-09-19T04:41:33.819Z,16.40
2018-09-19T04:44:02.135Z,16.23
2018-09-19T04:46:30.470Z,16.34
2018-09-19T04:48:58.778Z,16.45
2018-09-19T04:51:27.148Z,16.34
2018-09-19T04:53:55.437Z,16.45
2018-09-19T04:56:23.753Z,16.49
2018-09-19T04:58:52.065Z,16.41
2018-09-19T05:01:20.447Z,16.31
2018-09-19T05:03:48.754Z,16.28
2018-09-19T05:06:17.071Z,16.34
2018-09-19T05:08:45.407Z,16.31
2018-09-19T05:11:13.746Z,16.38
2018-09-19T05:13:42.034Z,16.37
2018-09-19T05:16:10.362Z,16.32
2018-09-19T05:18:38.680Z,16.31
2018-09-19T05:21:06.987Z,16.24
2018-09-19T05:23:35.312Z,16.23
2018-09-19T05:26:03.636Z,16.22
2018-09-19T05:28:31.938Z,16.19
2018-09-19T05:31:00.322Z,16.25
2018-09-19T05:33:28.596Z,16.22
2018-09-19T05:35:56.894Z,16.35
2018-09-19T05:38:25.934Z,16.46
2018-09-19T05:40:54.250Z,16.40
2018-09-19T05:43:22.570Z,16.57
2018-09-19T05:45:51.180Z,16.63
2018-09-19T05:48:19.463Z,16.47
2018-09-19T05:50:47.779Z,16.61
2018-09-19T05:53:16.101Z,16.70
2018-09-19T05:55:44.409Z,16.78
2018-09-19T05:58:12.730Z,16.77
2018-09-19T06:00:41.056Z,16.79
2018-09-19T06:03:09.374Z,16.89
2018-09-19T06:05:37.679Z,16.95
2018-09-19T06:08:06.004Z,16.93
2018-09-19T06:10:34.368Z,17.02
2018-09-19T06:13:02.699Z,17.04
2018-09-19T06:15:31.014Z,17.14
2018-09-19T06:17:59.341Z,17.16
2018-09-19T06:20:27.650Z,17.19
2018-09-19T06:22:55.986Z,17.21
2018-09-19T06:25:24.302Z,17.30
2018-09-19T06:27:52.615Z,17.26
2018-09-19T06:30:20.938Z,17.33
2018-09-19T06:32:49.305Z,17.44
2018-09-19T06:35:17.562Z,17.54
2018-09-19T06:37:45.907Z,17.75
2018-09-19T06:40:14.266Z,17.80
2018-09-19T06:42:42.522Z,17.86
2018-09-19T06:45:10.863Z,17.82
2018-09-19T06:47:39.189Z,17.91
2018-09-19T06:50:07.489Z,17.99
2018-09-19T06:52:35.836Z,18.07
2018-09-19T06:55:04.111Z,18.15
2018-09-19T06:57:32.427Z,18.19
2018-09-19T07:00:00.757Z,18.26
2018-09-19T07:02:29.132Z,18.35
2018-09-19T07:04:57.446Z,18.40
2018-09-19T07:07:25.854Z,18.50
2018-09-19T07:09:54.168Z,18.67
2018-09-19T07:12:22.519Z,18.74
2018-09-19T07:14:50.868Z,18.83
2018-09-19T07:17:19.176Z,18.80
2018-09-19T07:19:47.500Z,18.95
2018-09-19T07:22:15.898Z,19.09
2018-09-19T07:24:44.204Z,19.01
2018-09-19T07:27:12.619Z,19.01
2018-09-19T07:29:40.942Z,19.07
2018-09-19T07:32:09.253Z,19.15
2018-09-19T07:34:37.587Z,19.26
2018-09-19T07:37:05.995Z,19.37
2018-09-19T07:39:34.301Z,19.47
2018-09-19T07:42:02.703Z,19.46
2018-09-19T07:44:31.079Z,19.60
2018-09-19T07:46:59.399Z,19.55
2018-09-19T07:49:27.706Z,19.72
2018-09-19T07:51:56.033Z,19.71
2018-09-19T07:54:24.396Z,19.83
2018-09-19T07:56:52.646Z,19.87
2018-09-19T07:59:20.980Z,19.87
2018-09-19T08:01:49.286Z,19.95
2018-09-19T08:04:17.677Z,20.09
2018-09-19T08:06:46.081Z,20.13
2018-09-19T08:09:14.509Z,20.36
2018-09-19T08:11:42.739Z,20.35
2018-09-19T08:14:11.095Z,20.56
2018-09-19T08:16:39.439Z,20.68
2018-09-19T08:19:07.731Z,20.83
2018-09-19T08:21:36.106Z,20.81
2018-09-19T08:24:04.461Z,20.99
2018-09-19T08:26:32.818Z,21.11
2018-09-19T08:29:01.127Z,21.09
2018-09-19T08:31:29.439Z,21.16
2018-09-19T08:33:57.774Z,21.19
2018-09-19T08:36:26.083Z,21.38
2018-09-19T08:38:54.406Z,21.22
2018-09-19T08:41:22.720Z,21.35
2018-09-19T08:43:51.017Z,21.47
2018-09-19T08:46:19.324Z,21.50
2018-09-19T08:48:47.626Z,21.52
2018-09-19T08:51:15.979Z,21.61
2018-09-19T08:53:44.281Z,21.89
2018-09-19T08:56:12.591Z,21.77
2018-09-19T08:58:40.948Z,22.04
2018-09-19T09:01:09.218Z,22.13
2018-09-19T09:03:37.537Z,22.33
2018-09-19T09:06:05.852Z,22.33
2018-09-19T09:08:34.151Z,22.59
2018-09-19T09:11:02.463Z,22.72
2018-09-19T09:13:30.814Z,22.85
2018-09-19T09:15:59.084Z,22.86
2018-09-19T09:18:27.387Z,23.12
2018-09-19T09:20:55.706Z,23.23
2018-09-19T09:23:24.007Z,23.25
2018-09-19T09:25:52.318Z,23.46
2018-09-19T09:28:20.633Z,23.68
2018-09-19T09:30:48.934Z,23.79
2018-09-19T09:33:17.244Z,23.77
2018-09-19T09:35:45.559Z,23.95
2018-09-19T09:38:13.862Z,24.01
2018-09-19T09:40:42.179Z,23.95
2018-09-19T09:43:10.509Z,24.09
2018-09-19T09:45:38.790Z,24.35
2018-09-19T09:48:07.096Z,24.35
2018-09-19T09:50:35.399Z,24.45
2018-09-19T09:53:03.712Z,24.31
2018-09-19T09:55:31.998Z,24.46
2018-09-19T09:58:00.319Z,24.35
2018-09-19T10:00:28.608Z,24.57
2018-09-19T10:02:56.902Z,24.90
2018-09-19T10:05:25.215Z,25.05
2018-09-19T10:07:53.514Z,25.02
2018-09-19T10:10:21.824Z,25.05
2018-09-19T10:12:50.129Z,25.30
2018-09-19T10:15:18.450Z,25.37
2018-09-19T10:17:46.731Z,25.53
2018-09-19T10:20:15.028Z,25.46
2018-09-19T10:22:43.334Z,25.60
2018-09-19T10:25:11.630Z,25.67
2018-09-19T10:27:39.935Z,25.65
2018-09-19T10:30:08.224Z,25.69
2018-09-19T10:32:36.530Z,25.88
2018-09-19T10:35:04.835Z,25.87
2018-09-19T10:37:33.144Z,25.98
2018-09-19T10:40:01.442Z,25.87
2018-09-19T10:42:29.757Z,25.92
2018-09-19T10:44:58.060Z,26.05
2018-09-19T10:47:26.354Z,26.06
2018-09-19T10:49:54.650Z,26.04
2018-09-19T10:52:22.954Z,25.85
2018-09-19T10:54:51.249Z,25.86
2018-09-19T10:57:19.566Z,25.89
2018-09-19T10:59:47.863Z,26.25
2018-09-19T11:02:16.161Z,26.28
2018-09-19T11:04:44.462Z,26.17
2018-09-19T11:07:12.763Z,26.13
2018-09-19T11:09:41.098Z,26.23
2018-09-19T11:12:09.404Z,26.39
2018-09-19T11:14:37.699Z,26.46
2018-09-19T11:17:06.060Z,26.42
2018-09-19T11:19:34.296Z,26.26
2018-09-19T11:22:02.587Z,26.40
2018-09-19T11:24:30.888Z,26.56
2018-09-19T11:26:59.196Z,26.30
2018-09-19T11:29:27.503Z,26.71
2018-09-19T11:31:55.807Z,26.54
2018-09-19T11:34:24.110Z,26.52
2018-09-19T11:36:52.415Z,26.51
2018-09-19T11:39:20.722Z,26.52
2018-09-19T11:41:49.026Z,26.54
2018-09-19T11:44:17.326Z,26.53
2018-09-19T11:46:45.642Z,26.52
2018-09-19T11:49:13.942Z,26.35
2018-09-19T11:51:42.285Z,26.52
2018-09-19T11:54:10.560Z,26.58
2018-09-19T11:56:38.867Z,26.59
2018-09-19T11:59:07.174Z,26.83
2018-09-19T12:01:35.483Z,26.61
2018-09-19T12:04:03.781Z,26.81
2018-09-19T12:06:32.077Z,26.94
2018-09-19T12:09:00.407Z,26.91
2018-09-19T12:11:28.716Z,26.93
2018-09-19T12:13:57.029Z,26.65
2018-09-19T12:16:25.320Z,26.58
2018-09-19T12:18:53.619Z,26.71
2018-09-19T12:21:21.914Z,27.01
2018-09-19T12:23:50.226Z,27.05
2018-09-19T12:26:18.576Z,27.21
2018-09-19T12:28:46.823Z,27.34
2018-09-19T12:31:15.134Z,27.37
2018-09-19T12:33:43.434Z,27.54
2018-09-19T12:36:11.735Z,27.41
2018-09-19T12:38:40.042Z,27.38
2018-09-19T12:41:08.339Z,27.40
2018-09-19T12:43:36.631Z,27.27
2018-09-19T12:46:04.959Z,27.45
2018-09-19T12:48:33.258Z,27.57
2018-09-19T12:51:01.583Z,27.70
2018-09-19T12:53:29.871Z,27.75
2018-09-19T12:55:58.171Z,27.76
2018-09-19T12:58:26.466Z,27.89
2018-09-19T13:00:54.793Z,27.58
2018-09-19T13:03:23.096Z,27.45
2018-09-19T13:05:51.390Z,27.55
2018-09-19T13:08:19.693Z,27.58
2018-09-19T13:10:47.985Z,27.75
2018-09-19T13:13:16.291Z,27.94
2018-09-19T13:15:44.608Z,27.72
2018-09-19T13:18:12.898Z,27.67
2018-09-19T13:20:41.199Z,27.59
2018-09-19T13:23:09.524Z,27.42
2018-09-19T13:25:37.808Z,27.69
2018-09-19T13:28:06.102Z,27.72
2018-09-19T13:30:34.423Z,28.18
2018-09-19T13:33:02.724Z,28.41
2018-09-19T13:35:31.014Z,28.49
2018-09-19T13:37:59.330Z,28.70
2018-09-19T13:40:27.627Z,28.62
2018-09-19T13:42:55.944Z,28.66
2018-09-19T13:45:24.252Z,28.66
2018-09-19T13:47:52.555Z,28.84
2018-09-19T13:50:20.856Z,28.83
2018-09-19T13:52:49.166Z,28.68
2018-09-19T13:55:17.470Z,28.86
2018-09-19T13:57:45.842Z,28.86
2018-09-19T14:00:14.150Z,28.79
2018-09-19T14:02:42.466Z,29.01
2018-09-19T14:05:10.759Z,28.95
2018-09-19T14:07:39.070Z,28.88
2018-09-19T14:10:07.366Z,28.73
2018-09-19T14:12:35.663Z,28.72
2018-09-19T14:15:03.971Z,28.53
2018-09-19T14:17:32.266Z,28.54
2018-09-19T14:20:00.570Z,28.42
2018-09-19T14:22:28.882Z,28.30
2018-09-19T14:24:57.183Z,28.23
2018-09-19T14:27:25.476Z,28.14
2018-09-19T14:29:53.787Z,28.29
2018-09-19T14:32:22.090Z,28.25
2018-09-19T14:34:50.387Z,28.22
2018-09-19T14:37:18.699Z,28.00
2018-09-19T14:39:46.995Z,27.97
2018-09-19T14:42:15.300Z,27.92
2018-09-19T14:44:43.610Z,28.09
2018-09-19T14:47:11.906Z,28.12
2018-09-19T14:49:40.206Z,28.18
2018-09-19T14:52:08.530Z,28.11
2018-09-19T14:54:36.894Z,28.02
2018-09-19T14:57:05.130Z,27.92
2018-09-19T14:59:33.445Z,27.89
2018-09-19T15:02:01.732Z,28.06
2018-09-19T15:04:30.035Z,27.84
2018-09-19T15:06:58.346Z,27.92
2018-09-19T15:09:26.643Z,28.03
2018-09-19T15:11:54.971Z,27.82
2018-09-19T15:14:23.279Z,27.93
2018-09-19T15:16:51.575Z,27.81
2018-09-19T15:19:19.871Z,27.66
2018-09-19T15:21:48.186Z,27.71
2018-09-19T15:24:16.531Z,27.75
2018-09-19T15:26:44.783Z,27.73
2018-09-19T15:29:13.096Z,27.77
2018-09-19T15:31:41.391Z,27.84
2018-09-19T15:34:09.683Z,28.02
2018-09-19T15:36:38.031Z,28.17
2018-09-19T15:39:06.326Z,28.20
2018-09-19T15:41:34.646Z,28.06
2018-09-19T15:44:02.966Z,28.09
2018-09-19T15:46:31.266Z,28.06
2018-09-19T15:49:00.426Z,28.06
2018-09-19T15:51:28.719Z,28.19
2018-09-19T15:53:57.015Z,28.07
2018-09-19T15:56:25.323Z,28.07
2018-09-19T15:58:53.634Z,27.96
2018-09-19T16:01:21.930Z,27.72
2018-09-19T16:03:50.306Z,27.61
2018-09-19T16:06:18.736Z,27.53
2018-09-19T16:08:46.919Z,27.37
2018-09-19T16:11:15.216Z,27.22
2018-09-19T16:13:43.519Z,27.11
2018-09-19T16:16:11.818Z,26.99
2018-09-19T16:18:40.120Z,26.85
2018-09-19T16:21:08.427Z,26.82
2018-09-19T16:23:36.718Z,26.71
2018-09-19T16:26:05.014Z,26.67
2018-09-19T16:28:33.332Z,26.51
2018-09-19T16:31:01.635Z,26.44
2018-09-19T16:33:31.613Z,26.31
2018-09-19T16:35:59.930Z,26.24
2018-09-19T16:38:28.242Z,26.14
2018-09-19T16:40:56.560Z,26.05
2018-09-19T16:43:24.883Z,26.06
2018-09-19T16:45:53.229Z,25.92
2018-09-19T16:48:21.499Z,25.86
2018-09-19T16:50:49.815Z,25.81
2018-09-19T16:53:18.127Z,25.73
2018-09-19T16:55:46.425Z,25.73
2018-09-19T16:58:14.742Z,25.69
2018-09-19T17:00:43.043Z,25.76
2018-09-19T17:03:11.359Z,25.75
2018-09-19T17:05:39.718Z,25.75
2018-09-19T17:08:07.962Z,25.80
2018-09-19T17:10:36.262Z,25.73
2018-09-19T17:13:04.578Z,25.59
2018-09-19T17:15:32.985Z,25.50
2018-09-19T17:18:01.184Z,25.37
2018-09-19T17:20:29.498Z,25.35
2018-09-19T17:22:57.798Z,25.28
2018-09-19T17:25:26.102Z,25.16
2018-09-19T17:27:54.430Z,25.18
2018-09-19T17:30:22.734Z,25.04
2018-09-19T17:32:51.030Z,24.91
2018-09-19T17:35:19.340Z,24.89
2018-09-19T17:37:47.646Z,25.03
2018-09-19T17:40:15.947Z,25.03
2018-09-19T17:42:44.277Z,24.82
2018-09-19T17:45:12.588Z,24.66
2018-09-19T17:47:40.890Z,24.50
2018-09-19T17:50:09.241Z,24.38
2018-09-19T17:52:37.511Z,24.27
2018-09-19T17:55:05.819Z,24.18
2018-09-19T17:57:34.142Z,24.06
2018-09-19T18:00:02.443Z,23.89
2018-09-19T18:02:30.747Z,23.88
2018-09-19T18:04:59.074Z,23.79
2018-09-19T18:07:27.376Z,23.69
2018-09-19T18:09:55.674Z,23.63
2018-09-19T18:12:24.003Z,23.52
2018-09-19T18:14:52.363Z,23.44
2018-09-19T18:17:20.622Z,23.34
2018-09-19T18:19:48.934Z,23.20
2018-09-19T18:22:17.241Z,23.24
2018-09-19T18:24:45.548Z,23.21
2018-09-19T18:27:13.904Z,23.20
2018-09-19T18:29:42.199Z,23.03
2018-09-19T18:32:10.530Z,22.98
2018-09-19T18:34:38.819Z,22.90
2018-09-19T18:37:07.119Z,22.85
2018-09-19T18:39:35.924Z,22.77
2018-09-19T18:42:04.351Z,22.83
2018-09-19T18:44:32.663Z,22.72
2018-09-19T18:47:00.963Z,22.72
2018-09-19T18:49:29.291Z,22.69
2018-09-19T18:51:57.619Z,22.76
2018-09-19T18:54:25.924Z,22.78
2018-09-19T18:56:54.239Z,22.83
2018-09-19T18:59:22.537Z,22.71
2018-09-19T19:01:51.098Z,22.59
2018-09-19T19:04:19.396Z,22.54
2018-09-19T19:06:47.721Z,22.46
2018-09-19T19:09:16.027Z,22.36
2018-09-19T19:11:44.334Z,22.25
2018-09-19T19:14:12.640Z,22.12
2018-09-19T19:16:40.934Z,22.12
2018-09-19T19:19:09.255Z,21.98
2018-09-19T19:21:37.559Z,21.94
2018-09-19T19:24:05.862Z,21.88
2018-09-19T19:26:34.192Z,21.82
2018-09-19T19:29:02.488Z,21.76
2018-09-19T19:31:30.787Z,21.71
2018-09-19T19:33:59.107Z,21.75
2018-09-19T19:36:27.411Z,21.72
2018-09-19T19:38:55.718Z,21.65
2018-09-19T19:41:24.030Z,21.58
2018-09-19T19:43:52.335Z,21.57
2018-09-19T19:46:21.487Z,21.55
2018-09-19T19:48:49.791Z,21.49
2018-09-19T19:51:18.094Z,21.46
2018-09-19T19:53:46.413Z,21.47
2018-09-19T19:56:14.720Z,21.43
2018-09-19T19:58:43.055Z,21.46
2018-09-19T20:01:11.465Z,21.39
2018-09-19T20:03:39.914Z,21.35
2018-09-19T20:06:08.219Z,21.37
2018-09-19T20:08:36.530Z,21.36
2018-09-19T20:11:04.843Z,21.30
2018-09-19T20:13:33.147Z,21.25
2018-09-19T20:16:01.466Z,21.31
2018-09-19T20:18:29.779Z,21.26
2018-09-19T20:20:58.109Z,21.16
2018-09-19T20:23:26.418Z,21.12
2018-09-19T20:25:54.728Z,21.06
2018-09-19T20:28:23.049Z,21.07
2018-09-19T20:30:52.022Z,21.02
2018-09-19T20:33:20.347Z,20.95
2018-09-19T20:35:48.660Z,20.91
2018-09-19T20:38:16.962Z,20.89
2018-09-19T20:40:45.286Z,20.84
2018-09-19T20:43:13.610Z,20.74
2018-09-19T20:45:42.005Z,20.68
2018-09-19T20:48:10.309Z,20.70
2018-09-19T20:50:38.622Z,20.76
2018-09-19T20:53:06.930Z,20.67
2018-09-19T20:55:35.247Z,20.65
2018-09-19T20:58:05.296Z,20.56
2018-09-19T21:00:33.615Z,20.51
2018-09-19T21:03:01.939Z,20.48
2018-09-19T21:05:30.256Z,20.51
2018-09-19T21:07:59.579Z,20.47
2018-09-19T21:10:27.898Z,20.46
2018-09-19T21:12:56.206Z,20.39
2018-09-19T21:15:24.531Z,20.35
2018-09-19T21:17:52.830Z,20.29
2018-09-19T21:20:21.160Z,20.23
2018-09-19T21:22:49.472Z,20.23
2018-09-19T21:25:17.804Z,20.12
2018-09-19T21:27:46.123Z,20.06
2018-09-19T21:30:14.436Z,20.08
2018-09-19T21:32:42.767Z,20.02
2018-09-19T21:35:11.078Z,20.02
2018-09-19T21:37:39.395Z,20.01
2018-09-19T21:40:07.705Z,19.99
2018-09-19T21:42:36.146Z,20.02
2018-09-19T21:45:04.471Z,19.91
2018-09-19T21:47:32.833Z,20.03
2018-09-19T21:50:01.135Z,20.04
2018-09-19T21:52:29.454Z,19.98
2018-09-19T21:54:57.771Z,19.82
2018-09-19T21:57:26.092Z,19.84
2018-09-19T21:59:54.590Z,19.75
2018-09-19T22:02:22.924Z,19.70
2018-09-19T22:04:51.704Z,19.73
2018-09-19T22:07:20.143Z,19.76
2018-09-19T22:09:48.455Z,19.82
2018-09-19T22:12:16.926Z,20.01
2018-09-19T22:14:45.285Z,20.09
2018-09-19T22:17:13.619Z,19.92
2018-09-19T22:19:41.979Z,19.71
2018-09-19T22:22:10.290Z,19.65
2018-09-19T22:24:38.610Z,19.57
2018-09-19T22:27:06.927Z,19.57
2018-09-19T22:29:35.263Z,19.45
2018-09-19T22:32:03.578Z,19.42
2018-09-19T22:34:31.914Z,19.40
2018-09-19T22:37:00.223Z,19.40
2018-09-19T22:39:28.538Z,19.42
2018-09-19T22:41:56.858Z,19.35
2018-09-19T22:44:25.183Z,19.36
2018-09-19T22:46:53.527Z,19.46
2018-09-19T22:49:21.839Z,19.53
2018-09-19T22:51:50.168Z,19.48
2018-09-19T22:54:18.480Z,19.32
2018-09-19T22:56:46.808Z,19.27
2018-09-19T22:59:15.142Z,19.30
2018-09-19T23:01:43.493Z,19.30
2018-09-19T23:04:11.787Z,19.26
2018-09-19T23:06:40.115Z,19.25
2018-09-19T23:09:08.454Z,19.23
2018-09-19T23:11:36.779Z,19.18
2018-09-19T23:14:05.095Z,19.16
2018-09-19T23:16:33.418Z,19.17
2018-09-19T23:21:27.051Z,19.07
2018-09-19T23:23:55.345Z,19.05
2018-09-19T23:26:23.638Z,18.99
2018-09-19T23:28:51.944Z,18.93
2018-09-19T23:31:20.243Z,18.87
2018-09-19T23:33:48.554Z,18.84
2018-09-19T23:36:16.854Z,18.79
2018-09-19T23:38:45.146Z,18.80
2018-09-19T23:41:13.459Z,18.79
2018-09-19T23:43:41.754Z,18.79
2018-09-19T23:46:10.072Z,18.82
2018-09-19T23:48:38.370Z,18.86
2018-09-19T23:51:06.666Z,18.91
2018-09-19T23:53:34.992Z,18.89
2018-09-19T23:56:03.285Z,18.97
2018-09-19T23:58:31.598Z,18.92
